Sarasota, FL (34231)

5:53 PM EDT on September 24, 2016 (GMT -0400)
APRSWXNET | | Change Station

Elev 46 ft 27.28 °N, 82.53 °W | Updated 90 days ago

Partly Cloudy
Partly Cloudy
85 °F
Feels Like 91 °F
N
5
Wind Variable Wind from NNE
Gusts mph

Today
High -- | Low -- °F
--% Chance of Precip.
Yesterday
High -- | Low -- °F
Precip. -- in
Pressure 29.96 in
Visibility 10.0 miles
Clouds Overcast 3600 ft
Heat Index 91 °F
Dew Point 74 °F
Humidity 69%
Rainfall in
Snow Depth Not available.
7:19 AM 7:23 PM
Waning Crescent, 34% visible
SPECI KSRQ 242132Z VRB03KT 10SM OVC036 31/22 A2996 RMK AO2 LTG DSNT N-SE TSE26 T03110222
Pressure 29.96 in
Visibility 10.0 miles
Clouds Overcast 3600 ft
Heat Index 91 °F
Dew Point 74 °F
Humidity 69%
Rainfall in
Snow Depth Not available.
7:19 AM 7:23 PM
Waning Crescent, 34% visible
SPECI KSRQ 242132Z VRB03KT 10SM OVC036 31/22 A2996 RMK AO2 LTG DSNT N-SE TSE26 T03110222

10-Day Weather Forecast

Almanac

Astronomy

Sep. 24, 2016 Rise Set
Actual Time
Civil Twilight
Nautical Twilight
Astronomical Twilight
Moon
Length of Visible Light
Length of Day
Tomorrow will be .
, % of the Moon is Illuminated

Today's Extremes

State Highs State Lows

Community

WunderPhotos

Upload Photos

1,941,434 photos uploaded!

WunderBlog® & News

Nearby

Air Quality

  Air Quality AQ Index Pollutant
Not available.

Snow Depth

Station Depth Elevation

Earthquake Activity

City Distance Mag. Time & Date
Minimum magnitude displayed is 2.5.

Coastal Water Temperatures

Place Temperature

Stations

Nearby Weather Stations

Station Location Temp. Windchill Dew Point Humidity Wind Precip. Elev Updated Type
                   

Watches & Warnings

There are currently no watches in effect.